createdAt,value
2018-12-29T00:01:24.850Z,86.50
2018-12-29T00:04:07.103Z,82.90
2018-12-29T00:06:49.294Z,86.80
2018-12-29T00:09:31.292Z,83.70
2018-12-29T00:12:13.546Z,82.30
2018-12-29T00:14:55.831Z,78.67
2018-12-29T00:20:18.761Z,75.90
2018-12-29T00:23:00.697Z,82.23
2018-12-29T00:25:42.398Z,84.80
2018-12-29T00:28:24.317Z,81.37
2018-12-29T00:31:06.240Z,83.40
2018-12-29T00:33:47.679Z,79.20
2018-12-29T00:36:29.657Z,79.43
2018-12-29T00:39:11.574Z,78.73
2018-12-29T00:41:53.846Z,80.53
2018-12-29T00:44:35.420Z,73.50
2018-12-29T00:47:17.698Z,74.60
2018-12-29T00:49:59.863Z,83.33
2018-12-29T00:52:41.657Z,75.97
2018-12-29T00:55:23.727Z,73.33
2018-12-29T00:58:05.770Z,71.90
2018-12-29T01:00:48.125Z,72.17
2018-12-29T01:03:29.870Z,71.93
2018-12-29T01:06:11.653Z,69.60
2018-12-29T01:08:53.650Z,70.53
2018-12-29T01:11:35.281Z,71.50
2018-12-29T01:14:17.030Z,75.00
2018-12-29T01:16:58.998Z,69.60
2018-12-29T01:19:40.534Z,70.93
2018-12-29T01:22:21.981Z,74.07
2018-12-29T01:25:03.917Z,79.07
2018-12-29T01:27:46.337Z,71.03
2018-12-29T01:30:28.717Z,74.30
2018-12-29T01:33:10.301Z,70.63
2018-12-29T01:35:53.677Z,72.83
2018-12-29T01:38:35.639Z,74.37
2018-12-29T01:41:17.558Z,76.20
2018-12-29T01:43:59.368Z,68.60
2018-12-29T01:46:41.266Z,71.33
2018-12-29T01:49:23.216Z,73.97
2018-12-29T01:52:05.093Z,70.17
2018-12-29T01:54:46.809Z,74.00
2018-12-29T01:57:28.410Z,69.07
2018-12-29T02:00:10.389Z,68.43
2018-12-29T02:02:52.361Z,71.40
2018-12-29T02:05:34.386Z,67.97
2018-12-29T02:08:16.121Z,70.10
2018-12-29T02:10:58.055Z,73.03
2018-12-29T02:13:39.560Z,72.47
2018-12-29T02:16:21.636Z,76.33
2018-12-29T02:19:22.702Z,69.20
2018-12-29T02:22:05.085Z,66.30
2018-12-29T02:24:46.736Z,71.67
2018-12-29T02:27:26.825Z,70.90
2018-12-29T02:30:15.966Z,68.10
2018-12-29T02:33:05.122Z,68.07
2018-12-29T02:35:54.106Z,66.60
2018-12-29T02:38:34.177Z,69.57
2018-12-29T02:41:23.146Z,62.93
2018-12-29T02:44:12.163Z,67.43
2018-12-29T02:47:01.160Z,64.47
2018-12-29T02:49:50.335Z,61.63
2018-12-29T02:52:58.673Z,68.00
2018-12-29T02:55:47.705Z,65.17
2018-12-29T02:58:36.674Z,58.90
2018-12-29T03:01:25.997Z,63.30
2018-12-29T03:04:15.130Z,63.27
2018-12-29T03:07:04.135Z,59.47
2018-12-29T03:10:12.668Z,59.93
2018-12-29T03:13:01.654Z,64.57
2018-12-29T03:15:50.743Z,61.07
2018-12-29T03:18:59.149Z,64.60
2018-12-29T03:21:48.182Z,66.33
2018-12-29T03:24:37.206Z,63.97
2018-12-29T03:27:26.234Z,62.30
2018-12-29T03:30:15.374Z,64.03
2018-12-29T03:33:04.392Z,66.83
2018-12-29T03:35:53.512Z,58.87
2018-12-29T03:38:35.363Z,67.30
2018-12-29T03:41:16.858Z,65.23
2018-12-29T03:43:59.421Z,63.63
2018-12-29T03:46:41.397Z,61.37
2018-12-29T03:49:23.374Z,58.50
2018-12-29T03:52:05.690Z,63.17
2018-12-29T03:54:47.539Z,61.20
2018-12-29T03:57:29.207Z,59.83
2018-12-29T04:00:11.488Z,64.27
2018-12-29T04:02:53.332Z,59.80
2018-12-29T04:05:35.454Z,62.97
2018-12-29T04:08:17.514Z,59.80
2018-12-29T04:10:59.461Z,58.37
2018-12-29T04:13:41.841Z,58.23
2018-12-29T04:16:23.486Z,57.40
2018-12-29T04:19:05.795Z,49.23
2018-12-29T04:21:47.560Z,58.17
2018-12-29T04:24:29.272Z,55.80
2018-12-29T04:27:10.801Z,52.57
2018-12-29T04:29:53.038Z,54.57
2018-12-29T04:32:34.737Z,51.20
2018-12-29T04:35:16.510Z,50.87
2018-12-29T04:37:58.394Z,49.13
2018-12-29T04:40:40.223Z,53.27
2018-12-29T04:43:22.078Z,49.37
2018-12-29T04:46:05.371Z,53.30
2018-12-29T04:48:47.157Z,49.23
2018-12-29T04:51:30.941Z,50.70
2018-12-29T04:54:12.588Z,54.37
2018-12-29T04:56:54.059Z,58.87
2018-12-29T04:59:35.552Z,57.00
2018-12-29T05:02:17.177Z,48.47
2018-12-29T05:04:58.720Z,52.77
2018-12-29T05:07:40.444Z,52.93
2018-12-29T05:10:22.095Z,54.97
2018-12-29T05:13:03.711Z,56.57
2018-12-29T05:15:46.097Z,59.47
2018-12-29T05:18:28.771Z,52.03
2018-12-29T05:21:10.559Z,57.10
2018-12-29T05:23:52.220Z,51.37
2018-12-29T05:26:33.966Z,51.87
2018-12-29T05:29:15.946Z,48.57
2018-12-29T05:31:57.762Z,52.43
2018-12-29T05:34:39.903Z,53.20
2018-12-29T05:37:21.454Z,52.40
2018-12-29T05:40:03.932Z,57.73
2018-12-29T05:42:45.362Z,53.57
2018-12-29T05:45:27.841Z,56.43
2018-12-29T05:48:10.077Z,56.40
2018-12-29T05:50:52.437Z,57.60
2018-12-29T05:53:34.805Z,53.77
2018-12-29T05:56:17.864Z,56.27
2018-12-29T05:59:00.233Z,53.10
2018-12-29T06:01:42.510Z,52.10
2018-12-29T06:04:24.800Z,55.50
2018-12-29T06:07:06.563Z,54.27
2018-12-29T06:09:48.298Z,54.90
2018-12-29T06:12:30.210Z,56.90
2018-12-29T06:15:12.489Z,46.47
2018-12-29T06:17:53.963Z,55.80
2018-12-29T06:20:36.281Z,54.27
2018-12-29T06:23:18.179Z,52.30
2018-12-29T06:26:00.213Z,58.77
2018-12-29T06:28:42.069Z,56.50
2018-12-29T06:31:23.947Z,55.53
2018-12-29T06:34:07.082Z,60.20
2018-12-29T06:36:49.362Z,60.07
2018-12-29T06:39:30.896Z,62.37
2018-12-29T06:42:13.126Z,57.97
2018-12-29T06:44:55.441Z,61.47
2018-12-29T06:47:37.725Z,61.33
2018-12-29T06:50:19.275Z,62.37
2018-12-29T06:53:01.145Z,57.40
2018-12-29T06:55:42.716Z,63.13
2018-12-29T06:58:24.181Z,63.57
2018-12-29T07:01:05.738Z,66.43
2018-12-29T07:03:47.363Z,56.20
2018-12-29T07:06:29.157Z,60.93
2018-12-29T07:09:10.577Z,53.83
2018-12-29T07:11:52.744Z,50.70
2018-12-29T07:14:34.765Z,50.73
2018-12-29T07:17:16.379Z,49.33
2018-12-29T07:19:57.797Z,52.97
2018-12-29T07:22:39.558Z,46.13
2018-12-29T07:25:21.000Z,49.53
2018-12-29T07:28:02.878Z,52.07
2018-12-29T07:30:44.324Z,50.33
2018-12-29T07:33:26.994Z,51.10
2018-12-29T07:36:08.709Z,52.10
2018-12-29T07:38:50.875Z,49.37
2018-12-29T07:41:32.613Z,55.07
2018-12-29T07:44:14.781Z,59.23
2018-12-29T07:46:56.305Z,57.50
2018-12-29T07:49:38.027Z,58.93
2018-12-29T07:52:20.073Z,62.80
2018-12-29T07:55:01.638Z,60.77
2018-12-29T07:57:43.791Z,64.40
2018-12-29T08:00:26.221Z,65.40
2018-12-29T08:03:11.928Z,62.17
2018-12-29T08:05:54.077Z,60.63
2018-12-29T08:08:35.764Z,61.07
2018-12-29T08:11:17.501Z,65.77
2018-12-29T08:14:00.200Z,61.90
2018-12-29T08:16:41.762Z,62.27
2018-12-29T08:19:24.220Z,57.53
2018-12-29T08:22:05.623Z,60.23
2018-12-29T08:27:46.736Z,63.13
2018-12-29T08:30:29.182Z,57.53
2018-12-29T08:33:10.642Z,59.00
2018-12-29T08:35:52.246Z,54.97
2018-12-29T08:38:34.709Z,53.87
2018-12-29T08:41:17.821Z,53.77
2018-12-29T08:43:59.423Z,56.50
2018-12-29T08:46:40.859Z,52.10
2018-12-29T08:49:24.305Z,54.93
2018-12-29T08:52:06.166Z,55.50
2018-12-29T08:54:48.146Z,54.77
2018-12-29T08:57:30.337Z,52.77
2018-12-29T09:00:12.675Z,52.00
2018-12-29T09:02:54.422Z,55.63
2018-12-29T09:05:36.314Z,60.60
2018-12-29T09:08:17.725Z,62.03
2018-12-29T09:10:59.691Z,60.53
2018-12-29T09:13:41.565Z,62.37
2018-12-29T09:16:23.638Z,62.87
2018-12-29T09:19:05.954Z,57.63
2018-12-29T09:21:47.494Z,58.17
2018-12-29T09:24:29.101Z,54.27
2018-12-29T09:27:10.726Z,64.83
2018-12-29T09:29:52.233Z,60.30
2018-12-29T09:32:34.174Z,55.03
2018-12-29T09:35:16.051Z,60.23
2018-12-29T09:37:58.051Z,64.20
2018-12-29T09:40:39.479Z,58.83
2018-12-29T09:43:21.039Z,56.03
2018-12-29T09:46:03.447Z,56.10
2018-12-29T09:48:45.683Z,57.70
2018-12-29T09:51:27.541Z,55.13
2018-12-29T09:54:09.430Z,59.30
2018-12-29T09:56:51.621Z,57.83
2018-12-29T09:59:33.495Z,56.33
2018-12-29T10:02:15.090Z,60.00
2018-12-29T10:04:56.697Z,62.53
2018-12-29T10:07:38.265Z,60.93
2018-12-29T10:10:20.365Z,64.43
2018-12-29T10:13:02.655Z,64.83
2018-12-29T10:15:44.170Z,59.37
2018-12-29T10:18:25.695Z,59.70
2018-12-29T10:21:07.277Z,63.37
2018-12-29T10:23:50.951Z,61.20
2018-12-29T10:26:33.022Z,65.27
2018-12-29T10:29:14.975Z,54.93
2018-12-29T10:31:56.783Z,63.13
2018-12-29T10:34:38.828Z,60.90
2018-12-29T10:37:21.111Z,57.20
2018-12-29T10:40:03.955Z,63.73
2018-12-29T10:42:46.187Z,56.37
2018-12-29T10:45:28.177Z,56.93
2018-12-29T10:50:52.593Z,66.80
2018-12-29T10:53:34.010Z,61.40
2018-12-29T10:56:16.012Z,68.37
2018-12-29T10:58:58.083Z,63.50
2018-12-29T11:01:40.434Z,59.03
2018-12-29T11:04:22.378Z,63.07
2018-12-29T11:07:04.619Z,59.67
2018-12-29T11:09:46.833Z,62.37
2018-12-29T11:12:28.894Z,65.13
2018-12-29T11:15:10.662Z,58.70
2018-12-29T11:17:52.986Z,65.33
2018-12-29T11:20:36.214Z,67.00
2018-12-29T11:23:18.097Z,67.27
2018-12-29T11:26:00.035Z,73.07
2018-12-29T11:28:42.342Z,62.43
2018-12-29T11:31:24.043Z,62.83
2018-12-29T11:34:05.551Z,65.03
2018-12-29T11:36:47.870Z,64.00
2018-12-29T11:39:31.082Z,78.43
2018-12-29T11:42:12.994Z,77.77
2018-12-29T11:44:54.642Z,68.80
2018-12-29T11:47:36.309Z,65.03
2018-12-29T11:50:18.496Z,77.07
2018-12-29T11:53:00.388Z,71.77
2018-12-29T11:55:42.330Z,73.00
2018-12-29T11:58:24.093Z,82.03
2018-12-29T12:01:05.613Z,77.03
2018-12-29T12:03:48.313Z,78.37
2018-12-29T12:06:29.956Z,78.37
2018-12-29T12:09:11.942Z,86.23
2018-12-29T12:11:54.210Z,87.17
2018-12-29T12:14:36.015Z,90.70
2018-12-29T12:17:18.325Z,90.97
2018-12-29T12:19:59.792Z,95.03
2018-12-29T12:22:41.712Z,97.93
2018-12-29T12:25:24.003Z,93.77
2018-12-29T12:28:06.791Z,102.20
2018-12-29T12:30:48.563Z,101.67
2018-12-29T12:33:31.040Z,98.00
2018-12-29T12:36:13.262Z,107.40
2018-12-29T12:38:55.533Z,104.53
2018-12-29T12:41:37.846Z,104.20
2018-12-29T12:44:20.170Z,102.90
2018-12-29T12:47:02.501Z,108.53
2018-12-29T12:49:44.962Z,101.70
2018-12-29T12:52:27.439Z,98.40
2018-12-29T12:55:09.849Z,103.57
2018-12-29T12:57:51.495Z,95.60
2018-12-29T13:00:34.195Z,102.30
2018-12-29T13:03:15.987Z,94.67
2018-12-29T13:05:57.858Z,93.07
2018-12-29T13:08:39.860Z,93.87
2018-12-29T13:11:22.227Z,91.03
2018-12-29T13:14:04.422Z,93.60
2018-12-29T13:16:46.504Z,88.03
2018-12-29T13:19:28.762Z,96.53
2018-12-29T13:22:10.695Z,93.53
2018-12-29T13:24:52.512Z,88.97
2018-12-29T13:27:34.215Z,90.93
2018-12-29T13:30:16.163Z,82.30
2018-12-29T13:32:58.585Z,84.93
2018-12-29T14:54:48.836Z,13.97
2018-12-29T14:57:18.442Z,13.23
2018-12-29T14:59:48.126Z,12.97
2018-12-29T15:02:17.740Z,11.77
2018-12-29T15:04:47.110Z,10.27
2018-12-29T15:07:16.862Z,11.67
2018-12-29T15:09:46.483Z,14.10
2018-12-29T15:12:15.915Z,10.17
2018-12-29T15:14:45.479Z,11.37
2018-12-29T15:17:14.992Z,10.17
2018-12-29T15:19:44.374Z,10.73
2018-12-29T15:22:13.895Z,10.03
2018-12-29T15:24:43.573Z,9.80
2018-12-29T15:27:12.977Z,14.60
2018-12-29T15:29:42.341Z,12.33
2018-12-29T15:32:12.228Z,10.57
2018-12-29T15:34:41.727Z,10.70
2018-12-29T15:37:11.086Z,10.03
2018-12-29T15:39:40.836Z,9.57
2018-12-29T15:42:10.301Z,11.20
2018-12-29T15:44:39.753Z,12.63
2018-12-29T15:47:09.555Z,10.77
2018-12-29T16:14:04.980Z,22.70
2018-12-29T16:16:34.942Z,26.93
2018-12-29T16:19:05.003Z,29.33
2018-12-29T16:21:35.001Z,30.70
2018-12-29T16:24:04.683Z,33.27
2018-12-29T16:26:34.230Z,31.73
2018-12-29T16:29:03.729Z,37.07
2018-12-29T16:31:33.450Z,35.47
2018-12-29T16:34:03.021Z,36.83
2018-12-29T16:36:34.953Z,35.07
2018-12-29T16:39:06.749Z,32.83
2018-12-29T16:41:36.378Z,32.40
2018-12-29T16:44:05.833Z,35.00
2018-12-29T16:46:35.837Z,34.30
2018-12-29T16:49:06.936Z,32.37
2018-12-29T16:51:40.156Z,29.83
2018-12-29T16:54:15.302Z,32.27
2018-12-29T16:56:48.677Z,30.37
2018-12-29T16:59:21.739Z,30.47
2018-12-29T17:01:51.448Z,25.60
2018-12-29T17:04:20.896Z,31.13
2018-12-29T17:06:54.518Z,27.73
2018-12-29T17:09:29.198Z,26.40
2018-12-29T17:12:01.347Z,22.43
2018-12-29T17:14:31.031Z,25.50
2018-12-29T17:17:00.577Z,24.23
2018-12-29T17:19:30.384Z,25.70
2018-12-29T17:22:05.044Z,24.03
2018-12-29T17:24:38.124Z,23.40
2018-12-29T17:27:08.253Z,22.10
2018-12-29T17:29:37.645Z,23.47
2018-12-29T17:32:07.058Z,24.63
2018-12-29T17:34:36.638Z,25.83
2018-12-29T17:37:06.122Z,23.03
2018-12-29T17:39:36.164Z,25.83
2018-12-29T17:42:05.603Z,24.73
2018-12-29T17:44:35.168Z,25.27
2018-12-29T17:47:04.632Z,27.00
2018-12-29T17:49:34.056Z,26.83
2018-12-29T17:52:03.856Z,26.60
2018-12-29T17:54:33.434Z,26.10
2018-12-29T17:57:02.934Z,28.50
2018-12-29T17:59:32.500Z,27.27
2018-12-29T18:02:02.058Z,29.17
2018-12-29T18:04:32.008Z,31.30
2018-12-29T18:07:01.477Z,28.47
2018-12-29T18:09:31.270Z,35.43
2018-12-29T18:12:02.694Z,31.20
2018-12-29T18:14:39.857Z,32.27
2018-12-29T18:17:14.554Z,32.47
2018-12-29T18:19:44.065Z,30.67
2018-12-29T18:22:14.000Z,33.93
2018-12-29T18:24:43.376Z,33.27
2018-12-29T18:27:12.911Z,35.37
2018-12-29T18:29:42.328Z,35.07
2018-12-29T18:32:11.753Z,32.53
2018-12-29T18:34:41.280Z,34.27
2018-12-29T18:37:10.923Z,32.20
2018-12-29T18:39:40.483Z,34.87
2018-12-29T18:42:09.960Z,33.33
2018-12-29T18:44:39.530Z,33.57
2018-12-29T18:47:08.987Z,31.27
2018-12-29T18:49:38.946Z,34.13
2018-12-29T18:52:08.524Z,33.10
2018-12-29T18:54:37.998Z,33.77
2018-12-29T18:57:07.604Z,32.53
2018-12-29T18:59:37.028Z,34.17
2018-12-29T19:02:06.677Z,33.90
2018-12-29T19:04:36.612Z,33.53
2018-12-29T19:07:06.088Z,33.80
2018-12-29T19:09:35.597Z,33.87
2018-12-29T19:12:19.906Z,35.33
2018-12-29T19:14:52.966Z,35.40
2018-12-29T19:17:27.892Z,35.23
2018-12-29T19:20:04.299Z,30.77
2018-12-29T19:22:39.323Z,37.07
2018-12-29T19:25:13.837Z,38.83
2018-12-29T19:27:57.649Z,36.50
2018-12-29T19:36:23.644Z,37.30
2018-12-29T19:38:57.118Z,33.30
2018-12-29T19:41:33.260Z,36.17
2018-12-29T19:44:08.705Z,42.23
2018-12-29T19:46:45.932Z,32.27
2018-12-29T19:49:21.978Z,32.50
2018-12-29T19:51:58.270Z,28.23
2018-12-29T19:54:28.855Z,34.13
2018-12-29T19:57:04.253Z,28.37
2018-12-29T19:59:39.595Z,28.37
2018-12-29T20:02:27.072Z,25.77
2018-12-29T20:04:59.186Z,26.73
2018-12-29T20:07:47.944Z,25.10
2018-12-29T20:10:20.354Z,20.73
2018-12-29T20:12:56.607Z,16.03
2018-12-29T20:15:25.915Z,16.13
2018-12-29T20:17:57.712Z,10.30
2018-12-29T20:20:33.780Z,12.87
2018-12-29T20:23:08.708Z,14.57
2018-12-29T20:25:44.443Z,12.13
2018-12-29T20:28:17.855Z,9.20
2018-12-29T20:30:54.171Z,10.63
2018-12-29T20:33:33.036Z,12.33
2018-12-29T20:36:12.652Z,15.03
2018-12-29T20:38:49.346Z,10.03
2018-12-29T20:41:25.504Z,8.87
2018-12-29T20:44:04.329Z,10.50
2018-12-29T20:46:46.105Z,12.40
2018-12-29T20:49:23.309Z,14.63
2018-12-29T20:51:57.905Z,7.07
2018-12-29T20:54:29.312Z,10.60
2018-12-29T20:57:02.757Z,7.23
2018-12-29T20:59:39.314Z,8.40
2018-12-29T21:02:11.842Z,8.07
2018-12-29T21:04:44.884Z,9.00
2018-12-29T21:07:14.474Z,9.03
2018-12-29T21:09:44.151Z,6.97
2018-12-29T21:12:15.663Z,6.40
2018-12-29T21:14:45.260Z,8.67
2018-12-29T21:17:14.722Z,9.57
2018-12-29T21:19:44.247Z,9.97
2018-12-29T21:22:13.951Z,6.50
2018-12-29T21:24:43.559Z,6.60
2018-12-29T21:27:14.720Z,14.20
2018-12-29T21:29:46.235Z,5.77
2018-12-29T21:32:15.708Z,13.40
2018-12-29T21:34:45.292Z,8.97
2018-12-29T21:37:14.848Z,9.33
2018-12-29T21:39:44.411Z,12.53
2018-12-29T21:42:14.030Z,9.87
2018-12-29T21:44:45.696Z,7.50
2018-12-29T21:47:15.617Z,9.93
2018-12-29T21:49:45.767Z,15.40
2018-12-29T21:52:18.844Z,9.63
2018-12-29T21:54:48.282Z,15.13
2018-12-29T21:57:17.740Z,13.73
2018-12-29T21:59:47.769Z,14.80
2018-12-29T22:02:17.239Z,14.77
2018-12-29T22:04:46.809Z,8.50
2018-12-29T22:07:16.352Z,14.77
2018-12-29T22:09:45.892Z,10.00
2018-12-29T22:12:16.012Z,14.03
2018-12-29T22:14:45.607Z,15.30
2018-12-29T22:17:20.795Z,12.80
2018-12-29T22:20:03.992Z,8.97
2018-12-29T22:22:44.470Z,11.03
2018-12-29T22:25:20.164Z,10.07
2018-12-29T22:27:58.828Z,11.00
2018-12-29T22:30:33.142Z,15.50
2018-12-29T22:33:02.712Z,11.07
2018-12-29T22:35:32.164Z,11.97
2018-12-29T22:38:01.575Z,11.80
2018-12-29T22:40:31.061Z,9.83
2018-12-29T22:43:00.536Z,11.87
2018-12-29T22:45:30.298Z,9.97
2018-12-29T22:48:00.547Z,13.63
2018-12-29T22:50:41.001Z,10.83
2018-12-29T22:53:13.727Z,9.30
2018-12-29T22:55:44.788Z,8.07
2018-12-29T22:58:14.813Z,11.50
2018-12-29T23:00:47.598Z,11.67
2018-12-29T23:03:20.728Z,11.83
2018-12-29T23:05:50.814Z,10.47
2018-12-29T23:08:20.715Z,10.87
2018-12-29T23:10:54.776Z,11.43
2018-12-29T23:13:24.513Z,9.90
2018-12-29T23:15:54.042Z,11.67
2018-12-29T23:18:23.584Z,7.20
2018-12-29T23:20:56.512Z,8.13
2018-12-29T23:23:27.705Z,9.43
2018-12-29T23:25:57.416Z,11.70
2018-12-29T23:28:27.019Z,6.47
2018-12-29T23:30:58.170Z,11.50
2018-12-29T23:33:28.274Z,6.73
2018-12-29T23:35:57.709Z,6.33
2018-12-29T23:38:27.367Z,7.90
2018-12-29T23:40:56.840Z,8.00
2018-12-29T23:43:26.343Z,8.47
2018-12-29T23:45:56.038Z,5.47
2018-12-29T23:48:25.452Z,7.50
2018-12-29T23:51:05.258Z,8.10
2018-12-29T23:53:30.777Z,5.90
2018-12-29T23:56:00.696Z,5.50
2018-12-29T23:58:30.167Z,3.93
